Centreville, Virginia
Current Conditions -  °F | °C
As of 12:52 PM on Tuesday 21 Oct 2014 (Local Time) from KIAD Reporting Station
Scattered Clouds Scattered Clouds  
Wind Chill: 66°   Ceiling: Unl
Heat Index: 66°   Visibility: 10mi
Dew Point: 47°   Wind: 5mph
Humidity: 50%   Direction: NA
Pressure: 29.84"   Gusts: NA
Location:  38.84°N, 77.44°W
Report Text: KIAD 211652Z VRB04KT 10SM FEW040 SCT080 SCT250 19/08 A2984 RMK AO2 SLP105 T01890083
Loading
Personal Weather Stations






























Interactive Weather Map
Tropical Storm Tracking
New forecast layout! Learn more

10-Day Weather Forecast

Advertisements
Track Severe Weather on mobile